sensor_id;sensor_type;location;lat;lon;timestamp;temperature;humidity
18654;DHT22;9456;47.824;16.228;2022-12-26T00:01:20;1.20;95.10
18654;DHT22;9456;47.824;16.228;2022-12-26T00:03:49;1.20;95.10
18654;DHT22;9456;47.824;16.228;2022-12-26T00:06:18;1.20;95.10
18654;DHT22;9456;47.824;16.228;2022-12-26T00:08:46;1.20;95.00
18654;DHT22;9456;47.824;16.228;2022-12-26T00:11:16;1.20;95.10
18654;DHT22;9456;47.824;16.228;2022-12-26T00:13:45;1.20;95.10
18654;DHT22;9456;47.824;16.228;2022-12-26T00:16:14;1.20;95.10
18654;DHT22;9456;47.824;16.228;2022-12-26T00:18:43;1.30;95.20
18654;DHT22;9456;47.824;16.228;2022-12-26T00:21:12;1.30;95.20
18654;DHT22;9456;47.824;16.228;2022-12-26T00:26:21;1.40;95.40
18654;DHT22;9456;47.824;16.228;2022-12-26T00:28:49;1.50;95.40
18654;DHT22;9456;47.824;16.228;2022-12-26T00:31:19;1.50;95.40
18654;DHT22;9456;47.824;16.228;2022-12-26T00:33:48;1.60;95.40
18654;DHT22;9456;47.824;16.228;2022-12-26T00:36:17;1.60;95.40
18654;DHT22;9456;47.824;16.228;2022-12-26T00:38:46;1.60;95.40
18654;DHT22;9456;47.824;16.228;2022-12-26T00:41:15;1.70;95.50
18654;DHT22;9456;47.824;16.228;2022-12-26T00:43:44;1.70;95.50
18654;DHT22;9456;47.824;16.228;2022-12-26T00:46:13;1.70;95.40
18654;DHT22;9456;47.824;16.228;2022-12-26T00:48:41;1.70;95.40
18654;DHT22;9456;47.824;16.228;2022-12-26T00:51:10;1.70;95.40
18654;DHT22;9456;47.824;16.228;2022-12-26T00:53:39;1.80;95.40
18654;DHT22;9456;47.824;16.228;2022-12-26T00:56:08;1.80;95.40
18654;DHT22;9456;47.824;16.228;2022-12-26T00:58:37;1.80;95.30
18654;DHT22;9456;47.824;16.228;2022-12-26T01:01:09;1.80;95.30
18654;DHT22;9456;47.824;16.228;2022-12-26T01:03:37;1.80;95.30
18654;DHT22;9456;47.824;16.228;2022-12-26T01:06:06;1.80;95.20
18654;DHT22;9456;47.824;16.228;2022-12-26T01:08:35;1.80;95.20
18654;DHT22;9456;47.824;16.228;2022-12-26T01:11:06;1.80;95.20
18654;DHT22;9456;47.824;16.228;2022-12-26T01:13:34;1.90;95.20
18654;DHT22;9456;47.824;16.228;2022-12-26T01:16:04;1.90;95.20
18654;DHT22;9456;47.824;16.228;2022-12-26T01:18:33;1.90;95.10
18654;DHT22;9456;47.824;16.228;2022-12-26T01:21:02;2.00;95.10
18654;DHT22;9456;47.824;16.228;2022-12-26T01:23:31;2.00;95.20
18654;DHT22;9456;47.824;16.228;2022-12-26T01:26:02;2.00;95.00
18654;DHT22;9456;47.824;16.228;2022-12-26T01:28:31;2.00;95.00
18654;DHT22;9456;47.824;16.228;2022-12-26T01:31:02;2.10;95.00
18654;DHT22;9456;47.824;16.228;2022-12-26T01:33:31;2.10;95.10
18654;DHT22;9456;47.824;16.228;2022-12-26T01:36:00;2.20;95.10
18654;DHT22;9456;47.824;16.228;2022-12-26T01:38:29;2.20;95.10
18654;DHT22;9456;47.824;16.228;2022-12-26T01:40:58;2.20;94.90
18654;DHT22;9456;47.824;16.228;2022-12-26T01:43:50;2.30;94.90
18654;DHT22;9456;47.824;16.228;2022-12-26T01:46:19;2.30;94.80
18654;DHT22;9456;47.824;16.228;2022-12-26T01:48:47;2.30;94.70
18654;DHT22;9456;47.824;16.228;2022-12-26T01:51:17;2.30;94.60
18654;DHT22;9456;47.824;16.228;2022-12-26T01:53:46;2.30;94.60
18654;DHT22;9456;47.824;16.228;2022-12-26T01:56:15;2.30;94.60
18654;DHT22;9456;47.824;16.228;2022-12-26T01:58:46;2.30;94.60
18654;DHT22;9456;47.824;16.228;2022-12-26T02:01:13;2.40;94.80
18654;DHT22;9456;47.824;16.228;2022-12-26T02:03:42;2.40;94.50
18654;DHT22;9456;47.824;16.228;2022-12-26T02:06:28;2.40;94.40
18654;DHT22;9456;47.824;16.228;2022-12-26T02:08:57;2.40;94.30
18654;DHT22;9456;47.824;16.228;2022-12-26T02:11:27;2.40;94.20
18654;DHT22;9456;47.824;16.228;2022-12-26T02:13:55;2.40;94.20
18654;DHT22;9456;47.824;16.228;2022-12-26T02:16:24;2.40;94.20
18654;DHT22;9456;47.824;16.228;2022-12-26T02:18:53;2.40;94.30
18654;DHT22;9456;47.824;16.228;2022-12-26T02:21:42;2.40;94.20
18654;DHT22;9456;47.824;16.228;2022-12-26T02:24:41;2.40;94.20
18654;DHT22;9456;47.824;16.228;2022-12-26T02:27:32;2.40;94.20
18654;DHT22;9456;47.824;16.228;2022-12-26T02:30:42;2.40;94.30
18654;DHT22;9456;47.824;16.228;2022-12-26T02:39:15;2.40;94.20
18654;DHT22;9456;47.824;16.228;2022-12-26T02:41:45;2.40;94.10
18654;DHT22;9456;47.824;16.228;2022-12-26T02:44:15;2.40;94.00
18654;DHT22;9456;47.824;16.228;2022-12-26T02:47:01;2.30;94.10
18654;DHT22;9456;47.824;16.228;2022-12-26T02:49:39;2.30;94.20
18654;DHT22;9456;47.824;16.228;2022-12-26T02:52:08;2.30;94.30
18654;DHT22;9456;47.824;16.228;2022-12-26T02:54:56;2.20;94.30
18654;DHT22;9456;47.824;16.228;2022-12-26T02:57:43;2.20;94.40
18654;DHT22;9456;47.824;16.228;2022-12-26T03:00:27;2.20;94.60
18654;DHT22;9456;47.824;16.228;2022-12-26T03:03:15;2.30;94.50
18654;DHT22;9456;47.824;16.228;2022-12-26T03:06:01;2.30;94.60
18654;DHT22;9456;47.824;16.228;2022-12-26T03:08:49;2.30;94.60
18654;DHT22;9456;47.824;16.228;2022-12-26T03:14:37;2.30;94.80
18654;DHT22;9456;47.824;16.228;2022-12-26T03:17:06;2.30;94.80
18654;DHT22;9456;47.824;16.228;2022-12-26T03:19:50;2.30;94.80
18654;DHT22;9456;47.824;16.228;2022-12-26T03:22:33;2.30;94.70
18654;DHT22;9456;47.824;16.228;2022-12-26T03:25:03;2.30;94.80
18654;DHT22;9456;47.824;16.228;2022-12-26T03:27:55;2.30;94.80
18654;DHT22;9456;47.824;16.228;2022-12-26T03:30:24;2.30;94.80
18654;DHT22;9456;47.824;16.228;2022-12-26T03:33:11;2.40;94.90
18654;DHT22;9456;47.824;16.228;2022-12-26T03:35:59;2.40;95.10
18654;DHT22;9456;47.824;16.228;2022-12-26T03:38:29;2.40;95.10
18654;DHT22;9456;47.824;16.228;2022-12-26T03:40:58;2.40;95.10
18654;DHT22;9456;47.824;16.228;2022-12-26T03:43:53;2.40;95.10
18654;DHT22;9456;47.824;16.228;2022-12-26T03:46:41;2.40;95.10
18654;DHT22;9456;47.824;16.228;2022-12-26T03:49:29;2.40;95.20
18654;DHT22;9456;47.824;16.228;2022-12-26T03:52:16;2.40;95.50
18654;DHT22;9456;47.824;16.228;2022-12-26T03:55:05;2.40;95.20
18654;DHT22;9456;47.824;16.228;2022-12-26T03:57:51;2.40;95.20
18654;DHT22;9456;47.824;16.228;2022-12-26T04:00:48;2.40;95.20
18654;DHT22;9456;47.824;16.228;2022-12-26T04:03:35;2.40;95.30
18654;DHT22;9456;47.824;16.228;2022-12-26T04:06:23;2.40;95.40
18654;DHT22;9456;47.824;16.228;2022-12-26T04:09:10;2.40;95.80
18654;DHT22;9456;47.824;16.228;2022-12-26T04:11:46;2.40;95.40
18654;DHT22;9456;47.824;16.228;2022-12-26T04:14:40;2.40;95.40
18654;DHT22;9456;47.824;16.228;2022-12-26T04:17:28;2.40;95.30
18654;DHT22;9456;47.824;16.228;2022-12-26T04:20:17;2.40;95.30
18654;DHT22;9456;47.824;16.228;2022-12-26T04:22:47;2.50;95.30
18654;DHT22;9456;47.824;16.228;2022-12-26T04:28:32;2.50;95.20
18654;DHT22;9456;47.824;16.228;2022-12-26T04:31:20;2.50;95.20
18654;DHT22;9456;47.824;16.228;2022-12-26T04:34:06;2.50;95.20
18654;DHT22;9456;47.824;16.228;2022-12-26T04:36:55;2.50;95.30
18654;DHT22;9456;47.824;16.228;2022-12-26T04:39:40;2.50;95.20
18654;DHT22;9456;47.824;16.228;2022-12-26T04:42:27;2.50;95.00
18654;DHT22;9456;47.824;16.228;2022-12-26T04:45:13;2.50;95.10
18654;DHT22;9456;47.824;16.228;2022-12-26T04:47:42;2.50;95.00
18654;DHT22;9456;47.824;16.228;2022-12-26T04:50:12;2.50;95.00
18654;DHT22;9456;47.824;16.228;2022-12-26T04:52:41;2.40;95.00
18654;DHT22;9456;47.824;16.228;2022-12-26T04:55:29;2.40;95.00
18654;DHT22;9456;47.824;16.228;2022-12-26T04:57:58;2.40;95.10
18654;DHT22;9456;47.824;16.228;2022-12-26T05:00:26;2.40;94.90
18654;DHT22;9456;47.824;16.228;2022-12-26T05:02:55;2.40;95.00
18654;DHT22;9456;47.824;16.228;2022-12-26T05:05:44;2.30;95.00
18654;DHT22;9456;47.824;16.228;2022-12-26T05:08:32;2.20;94.90
18654;DHT22;9456;47.824;16.228;2022-12-26T05:11:17;2.20;95.00
18654;DHT22;9456;47.824;16.228;2022-12-26T05:13:46;2.20;95.10
18654;DHT22;9456;47.824;16.228;2022-12-26T05:16:15;2.10;95.10
18654;DHT22;9456;47.824;16.228;2022-12-26T05:19:01;2.10;95.20
18654;DHT22;9456;47.824;16.228;2022-12-26T05:21:48;2.10;95.20
18654;DHT22;9456;47.824;16.228;2022-12-26T05:24:36;2.00;95.20
18654;DHT22;9456;47.824;16.228;2022-12-26T05:27:22;2.00;95.20
18654;DHT22;9456;47.824;16.228;2022-12-26T05:30:10;1.90;95.10
18654;DHT22;9456;47.824;16.228;2022-12-26T05:32:39;1.90;95.20
18654;DHT22;9456;47.824;16.228;2022-12-26T05:35:26;1.90;95.30
18654;DHT22;9456;47.824;16.228;2022-12-26T05:37:56;1.80;95.40
18654;DHT22;9456;47.824;16.228;2022-12-26T05:40:25;1.80;95.70
18654;DHT22;9456;47.824;16.228;2022-12-26T05:42:53;1.80;95.40
18654;DHT22;9456;47.824;16.228;2022-12-26T05:45:23;1.80;95.40
18654;DHT22;9456;47.824;16.228;2022-12-26T05:47:57;1.80;95.40
18654;DHT22;9456;47.824;16.228;2022-12-26T05:50:26;1.80;95.60
18654;DHT22;9456;47.824;16.228;2022-12-26T05:52:56;1.80;95.60
18654;DHT22;9456;47.824;16.228;2022-12-26T05:55:26;1.80;95.70
18654;DHT22;9456;47.824;16.228;2022-12-26T05:57:55;1.80;95.70
18654;DHT22;9456;47.824;16.228;2022-12-26T06:00:24;1.90;95.70
18654;DHT22;9456;47.824;16.228;2022-12-26T06:02:53;1.90;95.80
18654;DHT22;9456;47.824;16.228;2022-12-26T06:05:22;1.90;95.80
18654;DHT22;9456;47.824;16.228;2022-12-26T06:07:51;1.90;95.70
18654;DHT22;9456;47.824;16.228;2022-12-26T06:10:20;1.90;95.80
18654;DHT22;9456;47.824;16.228;2022-12-26T06:12:48;1.90;95.90
18654;DHT22;9456;47.824;16.228;2022-12-26T06:15:17;2.00;96.00
18654;DHT22;9456;47.824;16.228;2022-12-26T06:17:46;2.10;96.10
18654;DHT22;9456;47.824;16.228;2022-12-26T06:20:15;2.20;96.40
18654;DHT22;9456;47.824;16.228;2022-12-26T06:22:45;2.40;96.70
18654;DHT22;9456;47.824;16.228;2022-12-26T06:25:14;2.60;97.00
18654;DHT22;9456;47.824;16.228;2022-12-26T06:27:43;2.80;97.20
18654;DHT22;9456;47.824;16.228;2022-12-26T06:30:13;2.90;97.30
18654;DHT22;9456;47.824;16.228;2022-12-26T06:32:44;3.00;97.40
18654;DHT22;9456;47.824;16.228;2022-12-26T06:35:14;3.10;97.40
18654;DHT22;9456;47.824;16.228;2022-12-26T06:37:42;3.20;97.50
18654;DHT22;9456;47.824;16.228;2022-12-26T06:40:12;3.30;97.50
18654;DHT22;9456;47.824;16.228;2022-12-26T06:42:41;3.30;97.50
18654;DHT22;9456;47.824;16.228;2022-12-26T06:45:11;3.40;97.50
18654;DHT22;9456;47.824;16.228;2022-12-26T06:47:40;3.40;97.60
18654;DHT22;9456;47.824;16.228;2022-12-26T06:50:09;3.40;97.60
18654;DHT22;9456;47.824;16.228;2022-12-26T06:52:38;3.40;97.60
18654;DHT22;9456;47.824;16.228;2022-12-26T06:55:08;3.50;97.70
18654;DHT22;9456;47.824;16.228;2022-12-26T06:57:37;3.50;97.70
18654;DHT22;9456;47.824;16.228;2022-12-26T07:00:08;3.50;97.80
18654;DHT22;9456;47.824;16.228;2022-12-26T07:02:37;3.60;97.90
18654;DHT22;9456;47.824;16.228;2022-12-26T07:05:07;3.60;97.90
18654;DHT22;9456;47.824;16.228;2022-12-26T07:07:36;3.60;97.90
18654;DHT22;9456;47.824;16.228;2022-12-26T07:10:06;3.60;97.90
18654;DHT22;9456;47.824;16.228;2022-12-26T07:12:35;3.60;98.00
18654;DHT22;9456;47.824;16.228;2022-12-26T07:15:05;3.60;98.00
18654;DHT22;9456;47.824;16.228;2022-12-26T07:17:35;3.60;98.00
18654;DHT22;9456;47.824;16.228;2022-12-26T07:20:05;3.70;98.10
18654;DHT22;9456;47.824;16.228;2022-12-26T07:22:34;3.70;98.10
18654;DHT22;9456;47.824;16.228;2022-12-26T07:25:03;3.80;98.20
18654;DHT22;9456;47.824;16.228;2022-12-26T07:27:32;3.90;98.20
18654;DHT22;9456;47.824;16.228;2022-12-26T07:30:01;3.90;98.10
18654;DHT22;9456;47.824;16.228;2022-12-26T07:32:30;3.90;98.10
18654;DHT22;9456;47.824;16.228;2022-12-26T07:34:59;3.90;98.10
18654;DHT22;9456;47.824;16.228;2022-12-26T07:37:28;3.90;98.00
18654;DHT22;9456;47.824;16.228;2022-12-26T07:39:57;3.90;97.70
18654;DHT22;9456;47.824;16.228;2022-12-26T07:42:26;4.00;97.80
18654;DHT22;9456;47.824;16.228;2022-12-26T07:44:55;4.00;97.70
18654;DHT22;9456;47.824;16.228;2022-12-26T07:47:24;3.90;97.60
18654;DHT22;9456;47.824;16.228;2022-12-26T07:49:53;3.90;97.50
18654;DHT22;9456;47.824;16.228;2022-12-26T07:52:22;4.00;97.60
18654;DHT22;9456;47.824;16.228;2022-12-26T07:54:51;4.00;97.50
18654;DHT22;9456;47.824;16.228;2022-12-26T07:57:20;4.00;97.40
18654;DHT22;9456;47.824;16.228;2022-12-26T07:59:49;4.10;97.30
18654;DHT22;9456;47.824;16.228;2022-12-26T08:02:18;4.10;97.00
18654;DHT22;9456;47.824;16.228;2022-12-26T08:04:47;4.10;96.90
18654;DHT22;9456;47.824;16.228;2022-12-26T08:07:16;4.10;96.80
18654;DHT22;9456;47.824;16.228;2022-12-26T08:09:45;4.10;96.80
18654;DHT22;9456;47.824;16.228;2022-12-26T08:12:14;4.20;96.80
18654;DHT22;9456;47.824;16.228;2022-12-26T08:14:43;4.30;96.40
18654;DHT22;9456;47.824;16.228;2022-12-26T08:17:12;4.30;96.20
18654;DHT22;9456;47.824;16.228;2022-12-26T08:19:41;4.40;95.90
18654;DHT22;9456;47.824;16.228;2022-12-26T08:22:10;4.40;95.60
18654;DHT22;9456;47.824;16.228;2022-12-26T08:24:39;4.50;95.30
18654;DHT22;9456;47.824;16.228;2022-12-26T08:27:09;4.50;94.90
18654;DHT22;9456;47.824;16.228;2022-12-26T08:29:37;4.60;94.70
18654;DHT22;9456;47.824;16.228;2022-12-26T08:32:06;4.60;94.30
18654;DHT22;9456;47.824;16.228;2022-12-26T08:34:35;4.60;94.20
18654;DHT22;9456;47.824;16.228;2022-12-26T08:37:04;4.60;93.90
18654;DHT22;9456;47.824;16.228;2022-12-26T08:39:33;4.60;93.90
18654;DHT22;9456;47.824;16.228;2022-12-26T08:42:02;4.60;93.80
18654;DHT22;9456;47.824;16.228;2022-12-26T08:44:31;4.60;94.10
18654;DHT22;9456;47.824;16.228;2022-12-26T08:47:00;4.60;93.90
18654;DHT22;9456;47.824;16.228;2022-12-26T08:49:29;4.70;94.10
18654;DHT22;9456;47.824;16.228;2022-12-26T08:51:58;4.80;93.80
18654;DHT22;9456;47.824;16.228;2022-12-26T08:54:27;4.90;93.60
18654;DHT22;9456;47.824;16.228;2022-12-26T08:56:56;4.90;93.50
18654;DHT22;9456;47.824;16.228;2022-12-26T08:59:25;4.90;93.50
18654;DHT22;9456;47.824;16.228;2022-12-26T09:01:54;5.00;93.30
18654;DHT22;9456;47.824;16.228;2022-12-26T09:04:23;5.00;93.10
18654;DHT22;9456;47.824;16.228;2022-12-26T09:06:52;5.00;92.90
18654;DHT22;9456;47.824;16.228;2022-12-26T09:09:21;5.00;92.90
18654;DHT22;9456;47.824;16.228;2022-12-26T09:11:50;5.10;92.90
18654;DHT22;9456;47.824;16.228;2022-12-26T09:14:27;5.10;93.00
18654;DHT22;9456;47.824;16.228;2022-12-26T09:17:01;5.20;93.00
18654;DHT22;9456;47.824;16.228;2022-12-26T09:19:32;5.20;92.90
18654;DHT22;9456;47.824;16.228;2022-12-26T09:22:01;5.30;92.70
18654;DHT22;9456;47.824;16.228;2022-12-26T09:24:47;5.40;92.50
18654;DHT22;9456;47.824;16.228;2022-12-26T09:27:17;5.50;92.50
18654;DHT22;9456;47.824;16.228;2022-12-26T09:29:46;5.70;92.30
18654;DHT22;9456;47.824;16.228;2022-12-26T09:32:15;5.60;92.20
18654;DHT22;9456;47.824;16.228;2022-12-26T09:34:46;5.70;92.30
18654;DHT22;9456;47.824;16.228;2022-12-26T09:37:13;5.90;92.10
18654;DHT22;9456;47.824;16.228;2022-12-26T09:42:27;6.40;92.00
18654;DHT22;9456;47.824;16.228;2022-12-26T09:44:56;6.90;91.00
18654;DHT22;9456;47.824;16.228;2022-12-26T09:47:30;7.30;90.30
18654;DHT22;9456;47.824;16.228;2022-12-26T09:50:00;7.70;87.00
18654;DHT22;9456;47.824;16.228;2022-12-26T09:52:32;8.10;85.80
18654;DHT22;9456;47.824;16.228;2022-12-26T09:55:00;8.40;85.10
18654;DHT22;9456;47.824;16.228;2022-12-26T09:57:30;9.00;83.10
18654;DHT22;9456;47.824;16.228;2022-12-26T09:59:59;9.60;78.90
18654;DHT22;9456;47.824;16.228;2022-12-26T10:02:27;9.90;77.50
18654;DHT22;9456;47.824;16.228;2022-12-26T10:04:56;10.00;76.20
18654;DHT22;9456;47.824;16.228;2022-12-26T10:07:27;10.00;76.40
18654;DHT22;9456;47.824;16.228;2022-12-26T10:10:00;10.10;76.50
18654;DHT22;9456;47.824;16.228;2022-12-26T10:12:49;10.00;75.20
18654;DHT22;9456;47.824;16.228;2022-12-26T10:15:26;9.70;78.60
18654;DHT22;9456;47.824;16.228;2022-12-26T10:17:55;9.70;79.20
18654;DHT22;9456;47.824;16.228;2022-12-26T10:20:26;9.70;79.20
18654;DHT22;9456;47.824;16.228;2022-12-26T10:26:12;9.60;80.10
18654;DHT22;9456;47.824;16.228;2022-12-26T10:28:42;9.60;81.00
18654;DHT22;9456;47.824;16.228;2022-12-26T10:31:13;9.60;81.20
18654;DHT22;9456;47.824;16.228;2022-12-26T10:33:43;9.60;80.60
18654;DHT22;9456;47.824;16.228;2022-12-26T10:36:16;9.60;81.40
18654;DHT22;9456;47.824;16.228;2022-12-26T10:38:45;9.70;82.00
18654;DHT22;9456;47.824;16.228;2022-12-26T10:41:19;9.80;81.30
18654;DHT22;9456;47.824;16.228;2022-12-26T10:43:47;9.90;81.30
18654;DHT22;9456;47.824;16.228;2022-12-26T10:49:11;9.90;81.30
18654;DHT22;9456;47.824;16.228;2022-12-26T10:51:40;10.00;80.30
18654;DHT22;9456;47.824;16.228;2022-12-26T10:54:13;10.10;79.30
18654;DHT22;9456;47.824;16.228;2022-12-26T10:56:42;10.10;79.70
18654;DHT22;9456;47.824;16.228;2022-12-26T10:59:12;10.00;79.40
18654;DHT22;9456;47.824;16.228;2022-12-26T11:01:40;10.00;80.00
18654;DHT22;9456;47.824;16.228;2022-12-26T11:04:16;10.10;79.90
18654;DHT22;9456;47.824;16.228;2022-12-26T11:06:44;10.10;79.70
18654;DHT22;9456;47.824;16.228;2022-12-26T11:09:42;10.10;79.30
18654;DHT22;9456;47.824;16.228;2022-12-26T11:12:19;10.10;78.90
18654;DHT22;9456;47.824;16.228;2022-12-26T11:14:48;10.10;79.30
18654;DHT22;9456;47.824;16.228;2022-12-26T11:17:26;10.00;79.40
18654;DHT22;9456;47.824;16.228;2022-12-26T11:20:10;10.10;80.00
18654;DHT22;9456;47.824;16.228;2022-12-26T11:22:38;10.20;79.70
18654;DHT22;9456;47.824;16.228;2022-12-26T11:25:18;10.20;79.20
18654;DHT22;9456;47.824;16.228;2022-12-26T11:27:47;10.20;78.20
18654;DHT22;9456;47.824;16.228;2022-12-26T11:30:24;10.20;79.10
18654;DHT22;9456;47.824;16.228;2022-12-26T11:33:04;10.20;78.80
18654;DHT22;9456;47.824;16.228;2022-12-26T11:35:32;10.20;77.90
18654;DHT22;9456;47.824;16.228;2022-12-26T11:38:02;10.10;77.90
18654;DHT22;9456;47.824;16.228;2022-12-26T11:40:32;10.20;78.40
18654;DHT22;9456;47.824;16.228;2022-12-26T11:43:05;10.30;77.30
18654;DHT22;9456;47.824;16.228;2022-12-26T11:45:35;10.40;77.10
18654;DHT22;9456;47.824;16.228;2022-12-26T11:48:06;10.40;76.70
18654;DHT22;9456;47.824;16.228;2022-12-26T11:50:33;10.40;76.30
18654;DHT22;9456;47.824;16.228;2022-12-26T11:53:05;10.50;76.90
18654;DHT22;9456;47.824;16.228;2022-12-26T11:55:34;10.50;76.80
18654;DHT22;9456;47.824;16.228;2022-12-26T11:58:13;10.50;76.50
18654;DHT22;9456;47.824;16.228;2022-12-26T12:00:40;10.30;77.90
18654;DHT22;9456;47.824;16.228;2022-12-26T12:03:11;10.30;79.50
18654;DHT22;9456;47.824;16.228;2022-12-26T12:05:42;10.00;80.60
18654;DHT22;9456;47.824;16.228;2022-12-26T12:08:23;9.90;82.90
18654;DHT22;9456;47.824;16.228;2022-12-26T12:11:01;9.70;84.00
18654;DHT22;9456;47.824;16.228;2022-12-26T12:13:35;9.50;84.40
18654;DHT22;9456;47.824;16.228;2022-12-26T12:16:07;9.50;84.80
18654;DHT22;9456;47.824;16.228;2022-12-26T12:18:42;9.50;82.80
18654;DHT22;9456;47.824;16.228;2022-12-26T12:21:13;9.30;83.00
18654;DHT22;9456;47.824;16.228;2022-12-26T12:23:51;9.10;84.50
18654;DHT22;9456;47.824;16.228;2022-12-26T12:26:22;9.00;85.30
18654;DHT22;9456;47.824;16.228;2022-12-26T12:29:24;8.90;85.90
18654;DHT22;9456;47.824;16.228;2022-12-26T12:31:59;8.80;86.20
18654;DHT22;9456;47.824;16.228;2022-12-26T12:34:30;8.80;86.30
18654;DHT22;9456;47.824;16.228;2022-12-26T12:37:04;8.80;86.80
18654;DHT22;9456;47.824;16.228;2022-12-26T12:39:36;8.80;85.70
18654;DHT22;9456;47.824;16.228;2022-12-26T12:42:16;8.60;85.60
18654;DHT22;9456;47.824;16.228;2022-12-26T12:44:57;8.50;86.80
18654;DHT22;9456;47.824;16.228;2022-12-26T12:47:26;8.50;87.60
18654;DHT22;9456;47.824;16.228;2022-12-26T12:49:57;8.60;87.90
18654;DHT22;9456;47.824;16.228;2022-12-26T12:52:33;8.60;87.20
18654;DHT22;9456;47.824;16.228;2022-12-26T12:58:22;8.60;87.40
18654;DHT22;9456;47.824;16.228;2022-12-26T13:00:53;8.60;87.90
18654;DHT22;9456;47.824;16.228;2022-12-26T13:03:24;8.60;87.90
18654;DHT22;9456;47.824;16.228;2022-12-26T13:05:56;8.60;87.90
18654;DHT22;9456;47.824;16.228;2022-12-26T13:08:24;8.50;87.20
18654;DHT22;9456;47.824;16.228;2022-12-26T13:10:53;8.40;87.10
18654;DHT22;9456;47.824;16.228;2022-12-26T13:13:25;8.40;87.40
18654;DHT22;9456;47.824;16.228;2022-12-26T13:15:55;8.40;87.90
18654;DHT22;9456;47.824;16.228;2022-12-26T13:18:24;8.30;88.20
18654;DHT22;9456;47.824;16.228;2022-12-26T13:20:52;8.40;88.40
18654;DHT22;9456;47.824;16.228;2022-12-26T13:23:24;8.40;88.60
18654;DHT22;9456;47.824;16.228;2022-12-26T13:26:12;8.30;89.00
18654;DHT22;9456;47.824;16.228;2022-12-26T13:28:44;8.20;89.90
18654;DHT22;9456;47.824;16.228;2022-12-26T13:31:13;8.20;90.20
18654;DHT22;9456;47.824;16.228;2022-12-26T13:33:42;8.20;90.20
18654;DHT22;9456;47.824;16.228;2022-12-26T13:36:12;8.20;90.10
18654;DHT22;9456;47.824;16.228;2022-12-26T13:39:26;8.10;90.20
18654;DHT22;9456;47.824;16.228;2022-12-26T13:41:55;8.10;90.40
18654;DHT22;9456;47.824;16.228;2022-12-26T13:44:41;8.10;90.30
18654;DHT22;9456;47.824;16.228;2022-12-26T13:47:33;7.90;90.40
18654;DHT22;9456;47.824;16.228;2022-12-26T13:53:23;7.70;90.80
18654;DHT22;9456;47.824;16.228;2022-12-26T13:55:52;7.50;91.20
18654;DHT22;9456;47.824;16.228;2022-12-26T13:58:27;7.40;91.20
18654;DHT22;9456;47.824;16.228;2022-12-26T14:00:57;7.30;91.50
18654;DHT22;9456;47.824;16.228;2022-12-26T14:03:46;7.20;91.60
18654;DHT22;9456;47.824;16.228;2022-12-26T14:06:26;7.10;91.80
18654;DHT22;9456;47.824;16.228;2022-12-26T14:09:07;7.00;92.20
18654;DHT22;9456;47.824;16.228;2022-12-26T14:11:44;7.00;92.40
18654;DHT22;9456;47.824;16.228;2022-12-26T14:14:15;6.90;92.30
18654;DHT22;9456;47.824;16.228;2022-12-26T14:16:45;6.70;92.70
18654;DHT22;9456;47.824;16.228;2022-12-26T14:19:16;6.60;93.00
18654;DHT22;9456;47.824;16.228;2022-12-26T14:21:49;6.60;93.30
18654;DHT22;9456;47.824;16.228;2022-12-26T14:24:27;6.50;93.50
18654;DHT22;9456;47.824;16.228;2022-12-26T14:26:57;6.40;93.60
18654;DHT22;9456;47.824;16.228;2022-12-26T14:29:26;6.30;93.80
18654;DHT22;9456;47.824;16.228;2022-12-26T14:32:04;6.20;93.90
18654;DHT22;9456;47.824;16.228;2022-12-26T14:34:37;6.10;94.20
18654;DHT22;9456;47.824;16.228;2022-12-26T14:37:11;6.00;94.50
18654;DHT22;9456;47.824;16.228;2022-12-26T14:39:37;6.00;94.60
18654;DHT22;9456;47.824;16.228;2022-12-26T14:42:18;5.90;94.70
18654;DHT22;9456;47.824;16.228;2022-12-26T14:45:11;5.80;94.80
18654;DHT22;9456;47.824;16.228;2022-12-26T14:47:40;5.70;94.80
18654;DHT22;9456;47.824;16.228;2022-12-26T14:53:17;5.60;95.20
18654;DHT22;9456;47.824;16.228;2022-12-26T14:55:50;5.60;95.10
18654;DHT22;9456;47.824;16.228;2022-12-26T14:58:28;5.50;95.50
18654;DHT22;9456;47.824;16.228;2022-12-26T15:01:41;5.40;95.20
18654;DHT22;9456;47.824;16.228;2022-12-26T15:03:46;5.40;95.30
18654;DHT22;9456;47.824;16.228;2022-12-26T15:07:04;5.30;95.60
18654;DHT22;9456;47.824;16.228;2022-12-26T15:12:41;5.20;95.60
18654;DHT22;9456;47.824;16.228;2022-12-26T15:15:30;5.00;95.70
18654;DHT22;9456;47.824;16.228;2022-12-26T15:18:08;5.00;95.80
18654;DHT22;9456;47.824;16.228;2022-12-26T15:21:04;4.90;96.00
18654;DHT22;9456;47.824;16.228;2022-12-26T15:23:50;4.90;96.10
18654;DHT22;9456;47.824;16.228;2022-12-26T15:26:57;4.90;96.30
18654;DHT22;9456;47.824;16.228;2022-12-26T15:29:46;4.80;96.70
18654;DHT22;9456;47.824;16.228;2022-12-26T15:32:15;4.80;96.80
18654;DHT22;9456;47.824;16.228;2022-12-26T15:35:00;4.90;96.90
18654;DHT22;9456;47.824;16.228;2022-12-26T15:40:22;4.80;97.40
18654;DHT22;9456;47.824;16.228;2022-12-26T15:43:06;4.80;97.20
18654;DHT22;9456;47.824;16.228;2022-12-26T15:45:42;4.80;97.20
18654;DHT22;9456;47.824;16.228;2022-12-26T15:48:19;4.70;97.20
18654;DHT22;9456;47.824;16.228;2022-12-26T15:50:48;4.70;97.20
18654;DHT22;9456;47.824;16.228;2022-12-26T15:53:25;4.70;97.20
18654;DHT22;9456;47.824;16.228;2022-12-26T15:56:20;4.70;97.30
18654;DHT22;9456;47.824;16.228;2022-12-26T15:58:57;4.70;97.30
18654;DHT22;9456;47.824;16.228;2022-12-26T16:01:37;4.60;97.20
18654;DHT22;9456;47.824;16.228;2022-12-26T16:04:09;4.60;97.20
18654;DHT22;9456;47.824;16.228;2022-12-26T16:06:45;4.50;97.20
18654;DHT22;9456;47.824;16.228;2022-12-26T16:09:21;4.50;97.20
18654;DHT22;9456;47.824;16.228;2022-12-26T16:11:52;4.40;97.10
18654;DHT22;9456;47.824;16.228;2022-12-26T16:14:32;4.30;97.10
18654;DHT22;9456;47.824;16.228;2022-12-26T16:17:20;4.20;97.00
18654;DHT22;9456;47.824;16.228;2022-12-26T16:19:49;4.10;97.00
18654;DHT22;9456;47.824;16.228;2022-12-26T16:22:20;4.00;97.00
18654;DHT22;9456;47.824;16.228;2022-12-26T16:25:06;3.90;97.00
18654;DHT22;9456;47.824;16.228;2022-12-26T16:27:36;3.80;96.90
18654;DHT22;9456;47.824;16.228;2022-12-26T16:30:10;3.60;96.80
18654;DHT22;9456;47.824;16.228;2022-12-26T16:32:38;3.50;96.80
18654;DHT22;9456;47.824;16.228;2022-12-26T16:35:14;3.40;96.80
18654;DHT22;9456;47.824;16.228;2022-12-26T16:37:42;3.30;97.10
18654;DHT22;9456;47.824;16.228;2022-12-26T16:40:22;3.30;97.10
18654;DHT22;9456;47.824;16.228;2022-12-26T16:42:59;3.20;97.60
18654;DHT22;9456;47.824;16.228;2022-12-26T16:45:31;3.30;98.00
18654;DHT22;9456;47.824;16.228;2022-12-26T16:48:00;3.50;98.70
18654;DHT22;9456;47.824;16.228;2022-12-26T16:50:29;3.60;98.70
18654;DHT22;9456;47.824;16.228;2022-12-26T16:53:11;3.70;98.70
18654;DHT22;9456;47.824;16.228;2022-12-26T16:55:45;3.80;98.80
18654;DHT22;9456;47.824;16.228;2022-12-26T16:58:17;3.80;98.80
18654;DHT22;9456;47.824;16.228;2022-12-26T17:01:00;3.90;98.90
18654;DHT22;9456;47.824;16.228;2022-12-26T17:03:31;4.00;98.90
18654;DHT22;9456;47.824;16.228;2022-12-26T17:05:59;4.10;98.90
18654;DHT22;9456;47.824;16.228;2022-12-26T17:08:30;4.10;98.90